Time;durP1;ratioP1;P1;durP2;ratioP2;P2;SDS_P1;SDS_P2;PMS_P1;PMS_P2;Temp;Humidity;BMP_temperature;BMP_pressure;BME280_temperature;BME280_humidity;BME280_pressure;Samples;Min_cycle;Max_cycle;Signal;HPM_P1;HPM_P2
2022/07/16 00:02:18;;;;;;;4.95;2.90;;;;;;;25.02;51.32;94753.06;4989272;28;20309;-74
2022/07/16 00:04:45;;;;;;;6.47;3.55;;;;;;;25.05;51.57;94754.44;4992503;28;20655;-77
2022/07/16 00:07:12;;;;;;;3.72;2.95;;;;;;;25.01;51.38;94756.69;4986730;28;20201;-75
2022/07/16 00:09:38;;;;;;;5.00;2.63;;;;;;;24.96;51.32;94746.91;4992144;28;20672;-76
2022/07/16 00:12:07;;;;;;;3.30;2.40;;;;;;;24.99;51.64;94756.91;4991326;28;20197;-77
2022/07/16 00:14:34;;;;;;;3.78;2.53;;;;;;;24.98;51.74;94755.31;4992277;28;21093;-74
2022/07/16 00:17:01;;;;;;;5.13;3.35;;;;;;;24.96;51.72;94757.38;4985269;28;20222;-74
2022/07/16 00:19:27;;;;;;;4.88;2.60;;;;;;;24.92;51.69;94747.59;4986653;28;20588;-75
2022/07/16 00:21:56;;;;;;;3.22;2.83;;;;;;;24.94;51.84;94756.78;4985762;28;20221;-76
2022/07/16 00:24:24;;;;;;;2.42;2.22;;;;;;;24.92;51.67;94758.06;4984238;28;20200;-77
2022/07/16 00:26:51;;;;;;;6.30;2.75;;;;;;;24.90;51.89;94758.25;4988602;28;20216;-77
2022/07/16 00:29:22;;;;;;;3.00;2.70;;;;;;;24.88;52.16;94754.28;4991778;28;20197;-75
2022/07/16 00:31:50;;;;;;;3.20;2.63;;;;;;;24.84;52.17;94742.69;4984247;28;20272;-75
2022/07/16 00:34:18;;;;;;;7.60;2.65;;;;;;;24.84;52.08;94748.72;4979915;28;20676;-74
2022/07/16 00:36:45;;;;;;;7.60;2.92;;;;;;;24.83;52.37;94748.91;4990643;28;20189;-76
2022/07/16 00:39:15;;;;;;;3.65;2.58;;;;;;;24.66;52.19;94731.28;4990721;28;20648;-76
2022/07/16 00:41:46;;;;;;;4.63;2.97;;;;;;;24.80;52.32;94750.19;4986487;28;20796;-78
2022/07/16 00:44:16;;;;;;;3.08;2.88;;;;;;;24.77;52.50;94750.63;4991354;28;20193;-78
2022/07/16 00:46:46;;;;;;;3.97;2.60;;;;;;;24.70;52.66;94742.88;4990952;28;20233;-74
2022/07/16 00:49:13;;;;;;;3.60;3.15;;;;;;;24.74;52.48;94759.72;4980779;28;20220;-77
2022/07/16 00:51:44;;;;;;;7.10;2.95;;;;;;;24.72;52.82;94755.72;4990898;28;20192;-76
2022/07/16 00:54:11;;;;;;;4.47;2.50;;;;;;;24.69;52.94;94758.78;4983125;28;20576;-76
2022/07/16 00:56:38;;;;;;;5.32;1.98;;;;;;;24.70;52.56;94755.16;4985397;28;20199;-77
2022/07/16 00:59:05;;;;;;;3.13;2.30;;;;;;;24.61;52.63;94752.06;4991302;28;20196;-75
2022/07/16 01:01:32;;;;;;;4.20;2.50;;;;;;;24.66;52.62;94762.66;4990947;28;20740;-77
2022/07/16 01:04:02;;;;;;;5.10;2.22;;;;;;;24.61;52.58;94754.69;4988019;28;20181;-74
2022/07/16 01:06:29;;;;;;;2.30;2.10;;;;;;;24.63;52.56;94765.72;4984351;28;20495;-75
2022/07/16 01:08:57;;;;;;;2.13;2.00;;;;;;;24.61;52.63;94761.72;4986805;28;20208;-75
2022/07/16 01:11:24;;;;;;;2.42;2.22;;;;;;;24.33;52.68;94720.47;4990646;28;20196;-74
2022/07/16 01:13:51;;;;;;;6.30;2.30;;;;;;;24.58;52.78;94762.19;4986569;28;20259;-74
2022/07/16 01:16:19;;;;;;;3.92;2.13;;;;;;;24.56;52.79;94769.44;4988640;28;20593;-74
2022/07/16 01:18:47;;;;;;;3.03;2.20;;;;;;;24.26;52.82;94729.16;4983978;28;20217;-73
2022/07/16 01:21:17;;;;;;;4.22;2.35;;;;;;;24.52;52.91;94764.66;4990548;28;20196;-75
2022/07/16 01:23:47;;;;;;;5.68;2.15;;;;;;;24.46;53.17;94767.34;4990813;28;20306;-74
2022/07/16 01:26:14;;;;;;;4.45;2.05;;;;;;;24.43;53.03;94755.50;4983640;28;20200;-76
2022/07/16 01:28:42;;;;;;;3.47;2.17;;;;;;;24.41;53.04;94762.78;4989908;28;20659;-74
2022/07/16 01:31:09;;;;;;;3.60;2.60;;;;;;;24.46;53.19;94764.75;4990003;28;20255;-76
2022/07/16 01:33:39;;;;;;;3.50;2.65;;;;;;;24.44;53.33;94770.22;4980952;28;20231;-76
2022/07/16 01:36:08;;;;;;;2.63;2.33;;;;;;;24.42;53.38;94767.00;4986315;28;20185;-74
2022/07/16 01:38:38;;;;;;;3.50;2.63;;;;;;;24.42;53.61;94766.22;4982381;28;20663;-75
2022/07/16 01:41:06;;;;;;;2.75;2.45;;;;;;;24.40;53.65;94769.06;4990065;28;20211;-76
2022/07/16 01:43:33;;;;;;;3.63;2.22;;;;;;;24.40;53.71;94768.25;4990260;28;20235;-76
2022/07/16 01:46:01;;;;;;;2.65;2.05;;;;;;;24.38;53.80;94767.66;4987144;28;20233;-75
2022/07/16 01:48:30;;;;;;;4.07;2.25;;;;;;;24.37;53.75;94763.44;4992285;28;20587;-76
2022/07/16 01:50:57;;;;;;;3.15;2.78;;;;;;;24.36;53.60;94760.03;4989977;28;20252;-75
2022/07/16 01:53:25;;;;;;;3.78;2.45;;;;;;;24.35;53.86;94770.69;4990145;28;20207;-75
2022/07/16 01:55:52;;;;;;;3.00;2.70;;;;;;;24.32;53.69;94779.78;4986977;28;20196;-74
2022/07/16 01:58:20;;;;;;;4.20;2.40;;;;;;;24.31;53.74;94774.75;4989831;28;20213;-74
2022/07/16 02:00:47;;;;;;;4.88;2.63;;;;;;;24.29;54.18;94777.59;4990134;28;20571;-74
2022/07/16 02:03:15;;;;;;;3.65;2.58;;;;;;;24.28;54.10;94783.84;4986509;28;20224;-75
2022/07/16 02:05:43;;;;;;;5.03;2.67;;;;;;;24.26;53.97;94784.06;4990947;28;20193;-74
2022/07/16 02:08:10;;;;;;;5.43;2.50;;;;;;;24.25;54.14;94781.66;4986236;28;20196;-74
2022/07/16 02:10:37;;;;;;;3.22;2.60;;;;;;;24.24;54.30;94785.31;4989723;28;20235;-76
2022/07/16 02:13:05;;;;;;;3.40;2.58;;;;;;;24.02;54.26;94754.41;4989719;28;20193;-74
2022/07/16 02:15:34;;;;;;;3.47;2.60;;;;;;;24.21;54.21;94789.16;4978883;28;20205;-74
2022/07/16 02:18:01;;;;;;;3.45;2.20;;;;;;;24.19;54.49;94800.84;4987513;28;20212;-75
2022/07/16 02:20:28;;;;;;;3.75;2.45;;;;;;;24.18;53.95;94792.22;4989618;28;20197;-75
2022/07/16 02:22:56;;;;;;;5.28;2.45;;;;;;;24.17;54.37;94795.84;4990023;28;20223;-75
2022/07/16 02:25:23;;;;;;;3.22;2.35;;;;;;;24.14;54.07;94793.69;4982123;28;20606;-74
2022/07/16 02:28:08;;;;;;;2.80;2.28;;;;;;;24.03;54.30;94784.75;4983977;28;20205;-75
2022/07/16 02:30:38;;;;;;;3.53;2.53;;;;;;;24.10;54.08;94797.75;4985834;28;20235;-75
2022/07/16 02:33:07;;;;;;;3.05;2.20;;;;;;;24.08;54.30;94798.97;4988566;28;20602;-76
2022/07/16 02:35:34;;;;;;;3.65;2.33;;;;;;;24.04;54.39;94802.00;4985446;28;20215;-76
2022/07/16 02:38:01;;;;;;;6.93;3.05;;;;;;;23.98;54.35;94794.25;4990056;28;20193;-74
2022/07/16 02:40:28;;;;;;;4.40;2.65;;;;;;;23.96;54.52;94793.66;4991469;28;20666;-76
2022/07/16 02:42:56;;;;;;;4.65;2.50;;;;;;;24.01;54.54;94796.44;4988320;28;20650;-77
2022/07/16 02:45:23;;;;;;;2.42;2.22;;;;;;;23.85;54.75;94774.31;4991863;28;20252;-76
2022/07/16 02:47:52;;;;;;;2.75;2.55;;;;;;;23.88;54.63;94781.72;4984778;28;20748;-76
2022/07/16 02:50:19;;;;;;;4.90;2.38;;;;;;;23.94;54.62;94788.66;4976769;28;20205;-75
2022/07/16 02:52:46;;;;;;;3.35;2.53;;;;;;;23.78;54.70;94769.13;4993197;28;20212;-76
2022/07/16 02:55:13;;;;;;;2.97;2.33;;;;;;;23.74;54.72;94773.19;4993631;28;20201;-75
2022/07/16 02:57:39;;;;;;;5.40;2.33;;;;;;;23.92;54.89;94797.72;4993335;28;20282;-75
2022/07/16 03:00:08;;;;;;;2.85;2.65;;;;;;;23.89;54.97;94796.38;4982224;28;20719;-76
2022/07/16 03:02:35;;;;;;;3.00;2.70;;;;;;;23.90;54.75;94802.38;4990736;28;20221;-76
2022/07/16 03:05:08;;;;;;;2.58;2.38;;;;;;;23.88;54.93;94802.63;4993034;28;20714;-75
2022/07/16 03:07:35;;;;;;;4.00;2.25;;;;;;;23.87;54.97;94802.81;4988308;28;20192;-75
2022/07/16 03:10:02;;;;;;;3.65;2.55;;;;;;;23.86;55.03;94802.00;4991389;28;20294;-75
2022/07/16 03:12:29;;;;;;;3.50;2.40;;;;;;;23.86;55.08;94811.66;4985039;28;20275;-76
2022/07/16 03:14:56;;;;;;;3.33;2.20;;;;;;;23.85;55.03;94805.66;4983604;28;20197;-75
2022/07/16 03:17:23;;;;;;;4.82;2.83;;;;;;;23.85;55.03;94808.25;4992773;28;20200;-75
2022/07/16 03:19:50;;;;;;;3.22;2.30;;;;;;;23.82;55.12;94797.44;4985240;28;20221;-76
2022/07/16 03:22:18;;;;;;;6.20;2.75;;;;;;;23.70;55.03;94784.28;4983538;28;20667;-75
2022/07/16 03:24:45;;;;;;;3.33;2.47;;;;;;;23.85;55.20;94807.47;4984782;28;20204;-74
2022/07/16 03:27:12;;;;;;;3.75;2.30;;;;;;;23.85;55.29;94810.88;4991308;28;20659;-75
2022/07/16 03:29:39;;;;;;;7.35;2.70;;;;;;;23.86;55.19;94816.91;4992521;28;20207;-76
2022/07/16 03:32:08;;;;;;;3.20;2.20;;;;;;;23.87;55.36;94816.66;4987637;28;20231;-75
2022/07/16 03:34:35;;;;;;;4.35;2.70;;;;;;;23.88;55.21;94817.50;4979942;28;20208;-75
2022/07/16 03:37:02;;;;;;;5.28;2.40;;;;;;;23.88;55.31;94815.69;4988131;28;20197;-75
2022/07/16 03:39:30;;;;;;;5.50;2.28;;;;;;;23.90;55.26;94824.06;4992599;28;20683;-75
2022/07/16 03:41:57;;;;;;;2.20;2.08;;;;;;;23.91;55.04;94828.28;4991476;28;20205;-76
2022/07/16 03:44:24;;;;;;;3.17;2.40;;;;;;;23.93;55.19;94828.88;4986370;28;20228;-76
2022/07/16 03:46:51;;;;;;;2.65;2.45;;;;;;;23.94;55.09;94820.03;4976357;28;20235;-77
2022/07/16 03:49:18;;;;;;;3.78;2.38;;;;;;;23.97;55.34;94831.84;4982511;28;20200;-74
2022/07/16 03:51:45;;;;;;;6.05;2.50;;;;;;;23.99;55.10;94835.03;4986064;28;20213;-76
2022/07/16 03:54:11;;;;;;;3.80;2.50;;;;;;;24.01;55.00;94835.63;4980741;28;20204;-76
2022/07/16 03:56:42;;;;;;;2.95;2.70;;;;;;;24.06;54.99;94837.59;4992638;28;20224;-77
2022/07/16 03:59:10;;;;;;;5.00;2.63;;;;;;;24.08;55.01;94838.16;4991795;28;20205;-76
2022/07/16 04:01:37;;;;;;;6.00;2.70;;;;;;;23.93;54.83;94807.19;4984805;28;20827;-76
2022/07/16 04:04:06;;;;;;;4.40;2.33;;;;;;;24.16;54.83;94832.66;4991417;28;20224;-76
2022/07/16 04:06:33;;;;;;;4.30;2.90;;;;;;;23.66;54.89;94750.00;4991743;28;20193;-75
2022/07/16 04:08:59;;;;;;;3.92;2.47;;;;;;;24.23;54.82;94826.34;4986139;28;20675;-74
2022/07/16 04:11:26;;;;;;;4.57;2.60;;;;;;;24.26;54.66;94820.66;4992715;28;20251;-76
2022/07/16 04:13:55;;;;;;;5.07;2.75;;;;;;;24.31;54.63;94825.25;4986528;28;20201;-74
2022/07/16 04:16:22;;;;;;;2.80;2.60;;;;;;;24.35;54.58;94830.81;4984225;28;20204;-77
2022/07/16 04:18:49;;;;;;;5.43;2.55;;;;;;;24.38;54.54;94820.75;4991261;28;20309;-76
2022/07/16 04:21:16;;;;;;;4.20;3.20;;;;;;;24.43;54.49;94827.94;4991490;28;20196;-74
2022/07/16 04:23:44;;;;;;;2.75;2.55;;;;;;;24.46;54.37;94824.88;4991628;28;20236;-76
2022/07/16 04:26:14;;;;;;;8.15;2.60;;;;;;;24.49;54.26;94827.84;4990893;28;20211;-76
2022/07/16 04:28:40;;;;;;;4.60;2.78;;;;;;;24.53;54.10;94825.59;4991847;28;20640;-76
2022/07/16 04:31:10;;;;;;;4.78;2.90;;;;;;;24.58;54.08;94827.56;4984900;28;20197;-75
2022/07/16 04:33:37;;;;;;;5.57;2.75;;;;;;;24.63;53.82;94830.28;4983650;28;20586;-76
2022/07/16 04:36:04;;;;;;;3.05;2.75;;;;;;;24.66;53.69;94828.03;4991504;28;20201;-76
2022/07/16 04:38:31;;;;;;;4.40;2.90;;;;;;;24.60;53.70;94815.03;4991358;28;20205;-77
2022/07/16 04:40:58;;;;;;;5.97;2.75;;;;;;;24.74;53.66;94843.44;4991289;28;20228;-76
2022/07/16 04:43:26;;;;;;;2.92;2.55;;;;;;;24.79;53.53;94840.16;4991232;28;20228;-77
2022/07/16 04:45:53;;;;;;;4.30;2.50;;;;;;;24.81;53.63;94837.28;4991177;28;20235;-76
2022/07/16 04:48:21;;;;;;;3.88;2.67;;;;;;;24.86;53.36;94846.06;4976703;28;20285;-77
2022/07/16 04:50:48;;;;;;;3.42;2.45;;;;;;;24.91;53.68;94855.88;4979178;28;20190;-76
2022/07/16 04:53:15;;;;;;;3.15;2.78;;;;;;;24.94;53.42;94853.59;4990853;28;20189;-77
2022/07/16 04:55:41;;;;;;;3.88;2.72;;;;;;;24.98;53.24;94856.59;4983955;28;20197;-78
2022/07/16 04:58:08;;;;;;;2.58;2.35;;;;;;;25.03;53.23;94860.13;4990680;28;20200;-78
2022/07/16 05:00:38;;;;;;;3.85;2.55;;;;;;;25.06;53.41;94861.50;4985978;28;20193;-76
2022/07/16 05:03:06;;;;;;;3.97;3.13;;;;;;;25.05;53.20;94853.88;4983759;28;20217;-77
2022/07/16 05:05:37;;;;;;;3.28;2.78;;;;;;;25.14;53.06;94853.34;4977479;28;20392;-77
2022/07/16 05:08:05;;;;;;;4.05;3.00;;;;;;;25.20;52.84;94856.88;4990811;28;20196;-75
2022/07/16 05:10:33;;;;;;;7.90;3.22;;;;;;;25.17;52.84;94845.06;4987869;28;20197;-76
2022/07/16 05:13:01;;;;;;;3.10;2.80;;;;;;;25.24;52.92;94853.59;4974786;28;20209;-76
2022/07/16 05:15:28;;;;;;;7.57;3.10;;;;;;;25.40;53.40;94848.75;4987325;28;20201;-77
2022/07/16 05:17:55;;;;;;;5.90;2.85;;;;;;;25.60;54.96;94836.09;4987709;28;20193;-77
2022/07/16 05:20:22;;;;;;;3.83;2.85;;;;;;;26.09;55.22;94857.66;4986207;28;20998;-77
2022/07/16 05:22:50;;;;;;;5.43;3.00;;;;;;;26.55;55.03;94858.59;4982040;28;20208;-77
2022/07/16 05:25:17;;;;;;;3.47;3.03;;;;;;;27.12;54.40;94860.47;4988986;28;20200;-77
2022/07/16 05:27:44;;;;;;;8.90;3.10;;;;;;;27.74;52.90;94853.31;4988323;28;20197;-76
2022/07/16 05:30:12;;;;;;;4.25;2.60;;;;;;;28.33;51.81;94838.88;4982954;28;20197;-80
2022/07/16 05:32:39;;;;;;;2.50;2.30;;;;;;;29.13;50.11;94864.50;4982510;28;20288;-80
2022/07/16 05:35:07;;;;;;;3.15;2.30;;;;;;;29.86;48.45;94853.50;4985645;28;20976;-78
2022/07/16 05:37:34;;;;;;;3.05;2.22;;;;;;;30.51;47.01;94843.56;4982800;28;20220;-77
2022/07/16 05:40:02;;;;;;;2.63;2.40;;;;;;;31.31;45.53;94860.69;4987521;28;20325;-77
2022/07/16 05:42:29;;;;;;;5.03;2.88;;;;;;;32.02;44.13;94864.38;4988292;28;20201;-77
2022/07/16 05:44:56;;;;;;;5.88;2.55;;;;;;;32.70;42.78;94862.03;4979470;28;20241;-80
2022/07/16 05:47:23;;;;;;;4.22;2.47;;;;;;;33.29;41.37;94861.19;4980482;28;20201;-80
2022/07/16 05:49:50;;;;;;;4.15;2.20;;;;;;;33.98;40.42;94869.13;4987842;28;21063;-76
2022/07/16 05:52:17;;;;;;;2.65;2.30;;;;;;;34.43;39.46;94857.25;4987949;28;20201;-76
2022/07/16 05:54:43;;;;;;;2.15;2.00;;;;;;;35.14;38.08;94876.81;4973527;28;20201;-77
2022/07/16 05:57:12;;;;;;;7.25;2.45;;;;;;;35.67;37.09;94882.69;4969729;28;20212;-77
2022/07/16 05:59:39;;;;;;;2.35;2.15;;;;;;;36.16;36.90;94880.53;4980980;28;20204;-76
2022/07/16 06:02:05;;;;;;;4.93;2.40;;;;;;;36.58;35.72;94874.16;4979486;28;20204;-76
2022/07/16 06:04:32;;;;;;;4.10;2.50;;;;;;;37.01;34.73;94862.38;4987679;28;20256;-75
2022/07/16 06:06:59;;;;;;;6.07;2.47;;;;;;;37.48;34.05;94882.41;4986158;28;20216;-76
2022/07/16 06:09:26;;;;;;;3.08;2.45;;;;;;;37.79;33.35;94860.28;4982480;28;20201;-78
2022/07/16 06:11:53;;;;;;;7.72;2.20;;;;;;;38.27;33.51;94872.94;4982005;28;20200;-77
2022/07/16 06:14:21;;;;;;;3.42;2.75;;;;;;;38.59;32.89;94867.25;4988128;28;20193;-76
2022/07/16 06:16:49;;;;;;;10.00;2.63;;;;;;;38.92;32.66;94866.88;4987338;28;20189;-81
2022/07/16 06:19:16;;;;;;;11.60;2.83;;;;;;;39.33;32.28;94879.03;4988346;28;20205;-80
2022/07/16 06:21:43;;;;;;;6.70;2.38;;;;;;;39.64;31.56;94876.97;4984870;28;20193;-79
2022/07/16 06:24:10;;;;;;;7.28;2.33;;;;;;;39.93;30.88;94866.66;4986370;28;21041;-78
2022/07/16 06:26:46;;;;;;;7.72;2.42;;;;;;;40.20;30.28;94870.84;4981186;28;20189;-82
2022/07/16 06:29:14;;;;;;;3.38;1.80;;;;;;;40.44;30.23;94871.06;4976512;28;20562;-88
2022/07/16 06:31:43;;;;;;;7.45;2.70;;;;;;;40.53;29.81;94850.38;4985635;28;20637;-89
2022/07/16 06:34:10;;;;;;;5.88;2.75;;;;;;;40.58;30.04;94823.38;4980424;28;20275;-89
2022/07/16 06:36:36;;;;;;;7.05;2.95;;;;;;;40.67;30.17;94834.03;4986110;28;20636;-85
2022/07/16 06:39:04;;;;;;;7.50;2.60;;;;;;;40.35;30.60;94827.44;4992989;28;20216;-81
2022/07/16 06:41:31;;;;;;;4.20;2.25;;;;;;;40.06;30.64;94834.31;4984555;28;20209;-82
2022/07/16 06:43:58;;;;;;;5.00;2.50;;;;;;;40.04;30.76;94866.00;4987842;28;20232;-83
2022/07/16 06:46:26;;;;;;;3.55;2.40;;;;;;;39.47;30.53;94819.94;4984593;28;20228;-84
2022/07/16 06:48:54;;;;;;;4.85;2.30;;;;;;;39.54;30.80;94869.25;4981617;28;20197;-83
2022/07/16 06:51:21;;;;;;;3.88;2.42;;;;;;;39.26;30.87;94863.44;4977471;28;20205;-82
2022/07/16 06:53:49;;;;;;;6.85;2.55;;;;;;;39.12;30.99;94868.13;4981111;28;20212;-86
2022/07/16 06:56:16;;;;;;;4.30;2.50;;;;;;;38.58;31.42;94820.22;4976363;28;20279;-88
2022/07/16 06:58:43;;;;;;;4.10;2.22;;;;;;;37.94;31.51;94745.06;4980010;28;20212;-84
2022/07/16 07:01:10;;;;;;;4.50;3.00;;;;;;;38.63;31.71;94868.19;4975167;28;20207;-83
2022/07/16 07:03:39;;;;;;;4.70;2.03;;;;;;;38.27;31.85;94841.66;4981990;28;20235;-90
2022/07/16 07:06:07;;;;;;;4.63;2.65;;;;;;;37.56;31.98;94756.19;4981370;28;20189;-84
2022/07/16 07:08:35;;;;;;;3.80;2.50;;;;;;;38.27;32.39;94880.97;4984203;28;20188;-83
2022/07/16 07:11:02;;;;;;;7.03;3.00;;;;;;;38.17;32.50;94884.66;4972947;28;20194;-87
2022/07/16 07:13:30;;;;;;;6.40;2.63;;;;;;;38.05;32.70;94879.94;4977338;28;20791;-83
2022/07/16 07:15:57;;;;;;;3.20;2.45;;;;;;;37.85;32.79;94865.19;4986633;28;20315;-83
2022/07/16 07:18:24;;;;;;;7.35;2.80;;;;;;;37.73;32.74;94856.16;4986242;28;20663;-85
2022/07/16 07:20:51;;;;;;;5.20;2.65;;;;;;;37.20;33.21;94787.50;4975462;28;20209;-91
2022/07/16 07:23:19;;;;;;;5.70;2.53;;;;;;;37.42;33.24;94831.00;4984120;28;20215;-82
2022/07/16 07:25:46;;;;;;;14.70;2.97;;;;;;;37.36;33.80;94818.06;4987838;28;20228;-80
2022/07/16 07:28:13;;;;;;;5.07;2.30;;;;;;;37.47;33.87;94848.78;4980407;28;20200;-81
2022/07/16 07:30:40;;;;;;;7.32;2.67;;;;;;;37.59;33.88;94874.91;4982188;28;20196;-82
2022/07/16 07:33:08;;;;;;;7.93;3.22;;;;;;;36.89;33.92;94777.53;4987035;28;20201;-84
2022/07/16 07:35:36;;;;;;;5.53;2.75;;;;;;;37.53;34.20;94868.91;4989462;28;20189;-82
2022/07/16 07:38:03;;;;;;;6.65;2.90;;;;;;;37.23;34.24;94841.06;4982576;28;20192;-83
2022/07/16 07:40:33;;;;;;;9.02;2.85;;;;;;;36.70;34.30;94755.56;4984935;28;20193;-84
2022/07/16 07:43:04;;;;;;;7.97;3.05;;;;;;;36.52;34.40;94731.44;4990189;28;20200;-84
2022/07/16 07:45:30;;;;;;;7.32;3.03;;;;;;;37.27;34.33;94851.91;4982815;28;20355;-86
2022/07/16 07:47:57;;;;;;;10.15;3.28;;;;;;;37.44;34.13;94883.28;4979077;28;20197;-84
2022/07/16 07:50:26;;;;;;;7.45;2.70;;;;;;;37.40;34.49;94881.22;4991368;28;20195;-83
2022/07/16 07:52:54;;;;;;;8.55;3.05;;;;;;;37.36;34.38;94885.56;4992054;28;20185;-89
2022/07/16 07:55:21;;;;;;;17.02;3.30;;;;;;;37.34;34.62;94884.28;4991575;28;20228;-82
2022/07/16 07:57:49;;;;;;;13.63;3.30;;;;;;;37.40;35.74;94888.47;4992899;28;20591;-81
2022/07/16 08:00:17;;;;;;;15.30;3.15;;;;;;;37.64;35.46;94885.47;4995694;28;20201;-83
2022/07/16 08:02:46;;;;;;;10.93;3.20;;;;;;;38.05;34.54;94885.28;4994289;28;20197;-82
2022/07/16 08:05:13;;;;;;;14.32;2.95;;;;;;;38.51;33.73;94889.38;4995863;28;20228;-81
2022/07/16 08:07:40;;;;;;;9.98;2.55;;;;;;;38.64;32.93;94828.88;4993562;28;20204;-81
2022/07/16 08:10:08;;;;;;;7.53;2.40;;;;;;;39.44;32.16;94880.28;4993373;28;20200;-82
2022/07/16 08:12:36;;;;;;;3.83;2.53;;;;;;;39.53;31.31;94824.84;4997863;28;20231;-81
2022/07/16 08:15:05;;;;;;;4.18;2.53;;;;;;;40.15;30.53;94853.06;4996998;28;20212;-83
2022/07/16 08:17:32;;;;;;;4.70;2.47;;;;;;;40.62;29.97;94856.47;4995416;28;20584;-81
2022/07/16 08:19:59;;;;;;;6.38;2.35;;;;;;;41.10;29.29;94881.28;4995899;28;20197;-83
2022/07/16 08:22:26;;;;;;;6.85;2.67;;;;;;;41.45;29.47;94876.44;4999115;28;20197;-80
2022/07/16 08:27:37;;;;;;;3.30;2.33;;;;;;;42.09;28.00;94883.25;5001719;28;20224;-82
2022/07/16 08:30:06;;;;;;;3.20;2.00;;;;;;;42.24;27.84;94871.09;4994807;28;20188;-82
2022/07/16 08:32:33;;;;;;;4.85;2.28;;;;;;;42.54;27.63;94883.22;4993209;28;20275;-86
2022/07/16 08:35:00;;;;;;;2.83;2.30;;;;;;;42.73;26.97;94881.88;4993942;28;20660;-82
2022/07/16 08:37:34;;;;;;;4.82;2.35;;;;;;;42.90;27.15;94878.16;4992204;28;20203;-81
2022/07/16 08:40:01;;;;;;;3.40;2.28;;;;;;;42.81;27.01;94846.78;4993548;28;20192;-82
2022/07/16 08:42:30;;;;;;;3.92;2.38;;;;;;;43.07;26.90;94865.25;4992462;28;20186;-80
2022/07/16 08:44:58;;;;;;;3.75;2.20;;;;;;;43.22;26.58;94889.88;4992871;28;20236;-82
2022/07/16 08:47:28;;;;;;;2.70;2.10;;;;;;;43.07;26.23;94851.00;4992407;28;20290;-81
2022/07/16 08:49:55;;;;;;;4.20;2.47;;;;;;;43.24;26.19;94872.25;4993016;28;20207;-81
2022/07/16 08:52:26;;;;;;;7.88;2.28;;;;;;;43.39;26.35;94886.91;4992834;28;20189;-82
2022/07/16 08:54:54;;;;;;;4.38;2.38;;;;;;;43.39;26.21;94880.72;4993011;28;20188;-82
2022/07/16 08:57:21;;;;;;;4.72;1.95;;;;;;;43.40;25.91;94893.06;4992409;28;20195;-82
2022/07/16 08:59:48;;;;;;;2.83;2.35;;;;;;;42.77;25.73;94796.66;4992495;28;20852;-82
2022/07/16 09:02:15;;;;;;;3.15;2.10;;;;;;;42.75;25.99;94790.81;4992297;28;20218;-82
2022/07/16 09:04:44;;;;;;;5.13;2.17;;;;;;;43.32;25.58;94886.72;4992457;28;20239;-83
2022/07/16 09:07:12;;;;;;;2.95;2.60;;;;;;;43.27;25.80;94887.75;4991918;28;20180;-83
2022/07/16 09:09:39;;;;;;;5.93;2.45;;;;;;;43.17;25.63;94885.50;4992373;28;20196;-82
2022/07/16 09:12:06;;;;;;;2.30;1.63;;;;;;;43.15;25.84;94893.16;4995553;28;20188;-82
2022/07/16 09:14:33;;;;;;;4.72;2.10;;;;;;;43.09;25.55;94891.81;4994014;28;20199;-84
2022/07/16 09:17:01;;;;;;;3.17;2.20;;;;;;;43.01;25.66;94890.03;4991849;28;20192;-81
2022/07/16 09:19:30;;;;;;;2.70;2.47;;;;;;;42.46;25.85;94813.41;4992242;28;20207;-82
2022/07/16 09:22:07;;;;;;;4.45;1.92;;;;;;;42.73;25.79;94868.44;4992463;28;20275;-83
2022/07/16 09:24:37;;;;;;;2.75;1.90;;;;;;;42.73;25.55;94879.97;4991900;28;20215;-82
2022/07/16 09:27:06;;;;;;;3.17;2.25;;;;;;;42.28;26.56;94826.31;4992552;28;20196;-82
2022/07/16 09:29:43;;;;;;;5.80;2.60;;;;;;;42.49;25.92;94878.06;4992355;28;20203;-83
2022/07/16 09:32:10;;;;;;;4.53;2.30;;;;;;;42.38;26.07;94868.88;4991806;28;20188;-83
2022/07/16 09:34:37;;;;;;;2.20;2.00;;;;;;;41.84;26.32;94799.13;4991466;28;20192;-83
2022/07/16 09:37:08;;;;;;;4.22;2.25;;;;;;;41.74;26.41;94799.53;4992260;28;20193;-84
2022/07/16 09:39:36;;;;;;;4.82;2.60;;;;;;;41.71;26.06;94810.94;4991625;28;20188;-82
2022/07/16 09:42:03;;;;;;;2.88;2.17;;;;;;;41.92;26.05;94861.94;4992237;28;20196;-82
2022/07/16 09:44:33;;;;;;;2.22;2.03;;;;;;;41.79;25.95;94867.25;4991277;28;20220;-83
2022/07/16 09:47:06;;;;;;;2.63;2.22;;;;;;;41.53;26.54;94851.41;4991433;28;20715;-83
2022/07/16 09:49:36;;;;;;;2.53;2.30;;;;;;;41.52;26.35;94859.81;4991403;28;20199;-82
2022/07/16 09:52:04;;;;;;;2.30;2.20;;;;;;;41.36;26.22;94851.53;4991780;28;20695;-82
2022/07/16 09:54:34;;;;;;;2.38;2.08;;;;;;;40.89;26.63;94800.75;4991279;28;20209;-83
2022/07/16 09:57:15;;;;;;;2.95;2.38;;;;;;;40.99;26.54;94829.13;4991836;28;20196;-82
2022/07/16 09:59:43;;;;;;;3.75;2.35;;;;;;;40.70;26.60;94803.13;4991476;28;20204;-83
2022/07/16 10:02:10;;;;;;;2.05;1.90;;;;;;;40.83;26.78;94853.81;4992215;28;20196;-83
2022/07/16 10:04:37;;;;;;;2.83;2.15;;;;;;;40.71;26.97;94851.06;4991750;28;20220;-82
2022/07/16 10:07:04;;;;;;;2.60;2.28;;;;;;;40.59;27.01;94842.94;4991257;28;20196;-82
2022/07/16 10:09:35;;;;;;;3.38;2.08;;;;;;;40.06;26.62;94780.72;4991420;28;20211;-83
2022/07/16 10:12:06;;;;;;;2.50;2.30;;;;;;;40.24;26.69;94815.50;4991201;28;20193;-83
2022/07/16 10:14:35;;;;;;;3.38;2.08;;;;;;;40.23;26.83;94838.84;4990753;28;20572;-83
2022/07/16 10:17:13;;;;;;;2.70;2.28;;;;;;;40.12;27.12;94838.44;4991180;28;20683;-82
2022/07/16 10:19:39;;;;;;;4.40;2.50;;;;;;;40.01;27.16;94839.06;4990746;28;20185;-82
2022/07/16 10:22:16;;;;;;;5.47;2.20;;;;;;;39.65;27.27;94794.72;4991068;28;20683;-83
2022/07/16 10:24:47;;;;;;;2.50;2.20;;;;;;;39.78;27.33;94831.28;4990965;28;20212;-81
2022/07/16 10:27:19;;;;;;;4.30;2.40;;;;;;;39.22;27.48;94757.38;4990964;28;20564;-82
2022/07/16 10:29:46;;;;;;;3.67;1.90;;;;;;;39.58;27.31;94827.34;4991299;28;20678;-83
2022/07/16 10:32:29;;;;;;;2.30;2.10;;;;;;;39.49;27.68;94831.16;4990990;28;20587;-82
2022/07/16 10:34:56;;;;;;;3.78;2.20;;;;;;;39.37;27.56;94821.09;4991170;28;20251;-83
2022/07/16 10:37:28;;;;;;;2.30;2.05;;;;;;;39.26;27.46;94817.97;4990442;28;20193;-83
2022/07/16 10:40:07;;;;;;;3.47;2.30;;;;;;;39.17;27.66;94827.06;4991081;28;20204;-83
2022/07/16 10:42:35;;;;;;;3.60;2.40;;;;;;;39.06;27.47;94819.34;4991053;28;20196;-82
2022/07/16 10:45:02;;;;;;;2.45;2.25;;;;;;;38.76;27.56;94786.28;4991375;28;20224;-82
2022/07/16 10:47:44;;;;;;;2.35;2.20;;;;;;;38.86;27.77;94814.63;4992154;28;20564;-83
2022/07/16 10:50:16;;;;;;;3.10;2.38;;;;;;;38.84;27.76;94824.84;4991021;28;20199;-82
2022/07/16 10:52:46;;;;;;;1.98;1.88;;;;;;;38.76;27.69;94818.34;4990639;28;20211;-83
2022/07/16 10:55:19;;;;;;;2.42;2.00;;;;;;;38.53;27.90;94798.22;4996349;28;20205;-82
2022/07/16 10:57:47;;;;;;;2.30;2.10;;;;;;;38.63;27.74;94821.97;4996111;28;20663;-82
2022/07/16 11:00:14;;;;;;;2.40;2.25;;;;;;;38.39;27.99;94791.13;4990830;28;20212;-82
2022/07/16 11:02:42;;;;;;;2.55;2.35;;;;;;;38.49;27.94;94816.75;4994182;28;20668;-81
2022/07/16 11:05:10;;;;;;;2.00;1.90;;;;;;;38.42;28.10;94808.41;4994469;28;20227;-82
2022/07/16 11:07:37;;;;;;;2.13;1.92;;;;;;;38.24;28.22;94793.41;4994147;28;20197;-82
2022/07/16 11:10:06;;;;;;;2.50;2.30;;;;;;;38.25;28.12;94809.09;4994200;28;20571;-83
2022/07/16 11:12:37;;;;;;;3.08;1.90;;;;;;;38.23;28.09;94807.88;4993810;28;20836;-83
2022/07/16 11:15:05;;;;;;;3.70;1.75;;;;;;;37.90;28.24;94768.94;4994396;28;20193;-83
2022/07/16 11:17:33;;;;;;;3.88;1.90;;;;;;;37.91;28.38;94775.06;4993921;28;20208;-84
2022/07/16 11:20:04;;;;;;;2.72;1.92;;;;;;;38.02;28.44;94804.97;4997368;28;20192;-83
2022/07/16 11:22:31;;;;;;;2.35;2.15;;;;;;;37.71;28.55;94773.72;5000094;28;20703;-82
2022/07/16 11:25:00;;;;;;;2.83;2.58;;;;;;;37.87;28.54;94806.97;4993785;28;20197;-83
2022/07/16 11:27:29;;;;;;;2.67;2.05;;;;;;;37.69;28.60;94793.78;4994014;28;20193;-83
2022/07/16 11:29:58;;;;;;;2.00;1.90;;;;;;;37.74;28.43;94807.81;4993976;28;20269;-82
2022/07/16 11:32:26;;;;;;;2.30;2.10;;;;;;;37.68;28.63;94806.34;4994145;28;20204;-83
2022/07/16 11:34:53;;;;;;;2.20;2.10;;;;;;;37.61;28.70;94808.66;4993879;28;20193;-84
2022/07/16 11:37:20;;;;;;;2.42;2.10;;;;;;;37.46;28.72;94790.38;4994195;28;20200;-82
2022/07/16 11:39:48;;;;;;;3.28;2.10;;;;;;;37.35;28.76;94787.13;4995228;28;20614;-84
2022/07/16 11:42:20;;;;;;;2.40;2.20;;;;;;;37.43;28.64;94807.78;4995870;28;20196;-84